Arcadia, South Carolina
Current Conditions -  °F | °C
As of 1:55 PM on Friday 21 Nov 2014 (Local Time) from KSPA Reporting Station
Clear Clear  
Wind Chill: 63°   Ceiling: Unl
Heat Index: 63°   Visibility: 10mi
Dew Point: 18°   Wind: 10mph
Humidity: 18%   Direction: 330°NNW
Pressure: 30.36"   Gusts: 18mph
Location:  34.96°N, 81.99°W
Report Text: KSPA 211855Z AUTO 33009G16KT 10SM CLR 17/M08 A3036 RMK AO2
Loading
Personal Weather Stations






























Interactive Weather Map New forecast layout! Learn more

10-Day Weather Forecast

Advertisements
Track Severe Weather on mobile